Time;durP1;ratioP1;P1;durP2;ratioP2;P2;SDS_P1;SDS_P2;PMS_P1;PMS_P2;Temp;Humidity;BMP_temperature;BMP_pressure;BME280_temperature;BME280_humidity;BME280_pressure;Samples;Min_cycle;Max_cycle;Signal;HPM_P1;HPM_P2
2023/04/11 00:02:13;;;;;;;10.10;6.30;;;;;;;;;;4954170;28;20210;-72
2023/04/11 00:04:40;;;;;;;13.03;6.03;;;;;;;;;;4949235;28;20289;-73
2023/04/11 00:07:08;;;;;;;10.47;6.70;;;;;;;;;;4948786;28;20428;-73
2023/04/11 00:09:35;;;;;;;10.63;6.17;;;;;;;;;;4949961;28;20229;-73
2023/04/11 00:12:02;;;;;;;10.03;6.13;;;;;;;;;;4954819;28;20318;-73
2023/04/11 00:14:31;;;;;;;9.30;5.97;;;;;;;;;;4951488;28;20209;-73
2023/04/11 00:16:59;;;;;;;8.13;6.27;;;;;;;;;;4960901;28;20293;-73
2023/04/11 00:19:27;;;;;;;9.57;6.40;;;;;;;;;;4942627;28;20747;-73
2023/04/11 00:21:56;;;;;;;9.00;6.03;;;;;;;;;;4951306;28;20213;-73
2023/04/11 00:24:22;;;;;;;11.47;6.83;;;;;;;;;;4950868;28;20669;-73
2023/04/11 00:26:50;;;;;;;9.83;6.33;;;;;;;;;;4958225;28;20218;-73
2023/04/11 00:29:16;;;;;;;8.77;6.20;;;;;;;;;;4955866;28;20758;-73
2023/04/11 00:31:43;;;;;;;9.53;5.90;;;;;;;;;;4931853;28;20198;-73
2023/04/11 00:34:09;;;;;;;9.67;6.77;;;;;;;;;;4954627;28;20214;-73
2023/04/11 00:36:36;;;;;;;9.87;6.13;;;;;;;;;;4952766;28;20213;-73
2023/04/11 00:39:04;;;;;;;9.53;6.17;;;;;;;;;;4939805;28;20422;-73
2023/04/11 00:41:31;;;;;;;12.10;6.87;;;;;;;;;;4940378;28;20212;-73
2023/04/11 00:43:58;;;;;;;10.27;6.67;;;;;;;;;;4944595;28;20221;-73
2023/04/11 00:46:26;;;;;;;9.73;6.43;;;;;;;;;;4938735;28;20234;-72
2023/04/11 00:48:53;;;;;;;10.20;7.27;;;;;;;;;;4938042;28;20222;-73
2023/04/11 00:51:19;;;;;;;10.43;6.47;;;;;;;;;;4941325;28;20211;-72
2023/04/11 00:53:45;;;;;;;11.63;6.93;;;;;;;;;;4949032;28;20301;-73
2023/04/11 00:56:13;;;;;;;10.07;6.63;;;;;;;;;;4951613;28;20202;-73
2023/04/11 00:58:40;;;;;;;10.43;6.97;;;;;;;;;;4952167;28;20774;-72
2023/04/11 01:01:08;;;;;;;11.23;6.33;;;;;;;;;;4957895;28;20550;-72
2023/04/11 01:03:36;;;;;;;9.50;6.90;;;;;;;;;;4934998;28;20293;-73
2023/04/11 01:06:29;;;;;;;11.20;6.77;;;;;;;;;;4949820;28;20600;-73
2023/04/11 01:08:57;;;;;;;11.03;7.13;;;;;;;;;;4937968;28;20352;-73
2023/04/11 01:11:24;;;;;;;10.07;6.77;;;;;;;;;;4951639;28;20735;-72
2023/04/11 01:13:51;;;;;;;9.67;5.47;;;;;;;;;;4953474;28;20206;-73
2023/04/11 01:16:20;;;;;;;11.37;6.83;;;;;;;;;;4940948;28;20214;-72
2023/04/11 01:18:47;;;;;;;9.50;6.63;;;;;;;;;;4935156;28;20684;-73
2023/04/11 01:21:15;;;;;;;9.27;6.17;;;;;;;;;;4946591;28;20217;-73
2023/04/11 01:23:47;;;;;;;11.60;6.43;;;;;;;;;;4941984;28;20202;-73
2023/04/11 01:26:13;;;;;;;9.87;6.97;;;;;;;;;;4940460;28;20226;-73
2023/04/11 01:28:40;;;;;;;9.57;6.53;;;;;;;;;;4951285;28;20244;-73
2023/04/11 01:31:07;;;;;;;11.27;7.33;;;;;;;;;;4951688;28;20273;-73
2023/04/11 01:33:34;;;;;;;10.30;6.47;;;;;;;;;;4953933;28;20696;-73
2023/04/11 01:36:01;;;;;;;11.17;6.87;;;;;;;;;;4936494;28;20217;-73
2023/04/11 01:38:53;;;;;;;11.10;6.90;;;;;;;;;;4955984;28;20234;-73
2023/04/11 01:41:19;;;;;;;10.57;5.93;;;;;;;;;;4953431;28;20224;-72
2023/04/11 01:43:46;;;;;;;9.80;6.47;;;;;;;;;;4950283;28;20218;-73
2023/04/11 01:46:12;;;;;;;10.10;7.07;;;;;;;;;;4939718;28;20237;-73
2023/04/11 01:48:38;;;;;;;9.90;6.30;;;;;;;;;;4935654;28;20813;-73
2023/04/11 01:51:06;;;;;;;10.03;6.60;;;;;;;;;;4934305;28;20577;-73
2023/04/11 01:53:33;;;;;;;12.17;6.50;;;;;;;;;;4934362;28;20212;-73
2023/04/11 01:56:00;;;;;;;11.33;6.93;;;;;;;;;;4936673;28;20478;-73
2023/04/11 01:58:26;;;;;;;11.60;6.77;;;;;;;;;;4940050;28;20222;-72
2023/04/11 02:00:53;;;;;;;11.27;7.07;;;;;;;;;;4937780;28;20206;-72
2023/04/11 02:03:21;;;;;;;8.47;6.50;;;;;;;;;;4947361;28;20289;-72
2023/04/11 02:05:47;;;;;;;11.07;6.70;;;;;;;;;;4936849;28;20233;-73
2023/04/11 02:08:13;;;;;;;11.00;6.70;;;;;;;;;;4939751;28;20321;-72
2023/04/11 02:10:39;;;;;;;10.57;7.30;;;;;;;;;;4955366;28;20704;-73
2023/04/11 02:13:07;;;;;;;9.87;6.00;;;;;;;;;;4936264;28;20797;-73
2023/04/11 02:15:33;;;;;;;10.17;7.07;;;;;;;;;;4951129;28;20762;-73
2023/04/11 02:18:00;;;;;;;9.83;6.43;;;;;;;;;;4935884;28;20232;-73
2023/04/11 02:20:26;;;;;;;10.80;6.67;;;;;;;;;;4935412;28;20202;-73
2023/04/11 02:22:59;;;;;;;9.10;6.20;;;;;;;;;;4952092;28;20293;-72
2023/04/11 02:25:25;;;;;;;9.20;6.50;;;;;;;;;;4939219;28;20233;-73
2023/04/11 02:27:52;;;;;;;9.97;6.47;;;;;;;;;;4938034;28;20230;-72
2023/04/11 02:30:20;;;;;;;8.60;6.10;;;;;;;;;;4951212;28;20209;-72
2023/04/11 02:32:48;;;;;;;8.60;5.60;;;;;;;;;;4948878;28;20224;-73
2023/04/11 02:35:14;;;;;;;11.27;7.17;;;;;;;;;;4938369;28;20300;-72
2023/04/11 02:37:40;;;;;;;9.73;6.53;;;;;;;;;;4952645;28;21226;-73
2023/04/11 02:40:08;;;;;;;11.17;6.77;;;;;;;;;;4952210;28;20221;-73
2023/04/11 02:42:38;;;;;;;13.13;6.17;;;;;;;;;;4950442;28;20265;-73
2023/04/11 02:45:06;;;;;;;7.27;5.57;;;;;;;;;;4951894;28;20290;-73
2023/04/11 02:47:33;;;;;;;9.13;5.73;;;;;;;;;;4933978;28;20202;-73
2023/04/11 02:50:04;;;;;;;9.13;6.13;;;;;;;;;;4935766;28;22181;-73
2023/04/11 02:52:38;;;;;;;10.40;6.70;;;;;;;;;;4932932;28;20202;-73
2023/04/11 02:55:05;;;;;;;7.67;5.13;;;;;;;;;;4935936;28;20796;-73
2023/04/11 02:57:31;;;;;;;8.83;6.03;;;;;;;;;;4952430;28;20214;-72
2023/04/11 02:59:58;;;;;;;10.63;6.67;;;;;;;;;;4941386;28;20234;-73
2023/04/11 03:02:33;;;;;;;9.23;5.93;;;;;;;;;;4934586;28;20680;-72
2023/04/11 03:05:03;;;;;;;7.90;5.83;;;;;;;;;;4952132;28;20729;-72
2023/04/11 03:07:33;;;;;;;8.07;5.57;;;;;;;;;;4937166;28;20574;-73
2023/04/11 03:09:59;;;;;;;7.60;5.73;;;;;;;;;;4948253;28;20213;-72
2023/04/11 03:12:26;;;;;;;11.80;7.10;;;;;;;;;;4941169;28;20210;-73
2023/04/11 03:14:58;;;;;;;7.17;5.33;;;;;;;;;;4936181;28;20418;-73
2023/04/11 03:17:24;;;;;;;9.67;5.90;;;;;;;;;;4935794;28;20220;-73
2023/04/11 03:19:51;;;;;;;11.60;6.00;;;;;;;;;;4934893;28;20268;-73
2023/04/11 03:22:18;;;;;;;8.17;5.60;;;;;;;;;;4937344;28;20305;-72
2023/04/11 03:24:44;;;;;;;8.37;5.93;;;;;;;;;;4935759;28;20709;-73
2023/04/11 03:27:15;;;;;;;7.43;5.70;;;;;;;;;;4955228;28;20283;-73
2023/04/11 03:29:43;;;;;;;8.30;5.30;;;;;;;;;;4947627;28;20218;-73
2023/04/11 03:32:17;;;;;;;9.27;6.00;;;;;;;;;;4943671;28;20198;-73
2023/04/11 03:34:44;;;;;;;6.60;5.00;;;;;;;;;;4942277;28;20273;-73
2023/04/11 03:37:12;;;;;;;8.17;5.33;;;;;;;;;;4942545;28;20719;-72
2023/04/11 03:39:39;;;;;;;7.97;5.57;;;;;;;;;;4952550;28;20286;-72
2023/04/11 03:42:06;;;;;;;8.07;5.80;;;;;;;;;;4954400;28;20612;-72
2023/04/11 03:44:32;;;;;;;7.00;5.37;;;;;;;;;;4940288;28;20435;-73
2023/04/11 03:47:00;;;;;;;8.53;5.07;;;;;;;;;;4943120;28;20263;-73
2023/04/11 03:49:36;;;;;;;9.67;5.80;;;;;;;;;;4935513;28;20309;-73
2023/04/11 03:52:04;;;;;;;8.50;5.17;;;;;;;;;;4938213;28;20218;-73
2023/04/11 03:54:36;;;;;;;8.00;5.60;;;;;;;;;;4954407;28;20261;-73
2023/04/11 03:57:04;;;;;;;7.23;5.30;;;;;;;;;;4940030;28;20669;-73
2023/04/11 03:59:34;;;;;;;10.03;5.27;;;;;;;;;;4938948;28;20226;-73
2023/04/11 04:02:07;;;;;;;8.10;5.43;;;;;;;;;;4940308;28;20204;-73
2023/04/11 04:04:39;;;;;;;8.17;5.23;;;;;;;;;;4943863;28;20218;-73
2023/04/11 04:07:20;;;;;;;7.27;5.60;;;;;;;;;;4926368;28;20281;-72
2023/04/11 04:09:49;;;;;;;8.73;4.93;;;;;;;;;;4940635;28;21173;-73
2023/04/11 04:12:16;;;;;;;6.90;4.77;;;;;;;;;;4929016;28;21096;-73
2023/04/11 04:15:07;;;;;;;7.57;5.53;;;;;;;;;;4941188;28;20201;-72
2023/04/11 04:17:36;;;;;;;8.53;4.77;;;;;;;;;;4944740;28;20705;-73
2023/04/11 04:20:09;;;;;;;7.40;5.33;;;;;;;;;;4931310;28;20214;-73
2023/04/11 04:22:46;;;;;;;8.23;5.43;;;;;;;;;;4936924;28;20212;-73
2023/04/11 04:25:15;;;;;;;7.20;5.20;;;;;;;;;;4942048;28;20699;-73
2023/04/11 04:27:45;;;;;;;6.73;4.87;;;;;;;;;;4940218;28;20314;-72
2023/04/11 04:30:14;;;;;;;8.80;4.90;;;;;;;;;;4958367;28;20210;-73
2023/04/11 04:33:11;;;;;;;6.97;4.90;;;;;;;;;;4953683;28;20212;-73
2023/04/11 04:35:38;;;;;;;7.27;5.17;;;;;;;;;;4936799;28;20214;-73
2023/04/11 04:38:05;;;;;;;7.33;5.40;;;;;;;;;;4940352;28;20472;-73
2023/04/11 04:40:44;;;;;;;8.23;5.43;;;;;;;;;;4938780;28;20202;-73
2023/04/11 04:43:16;;;;;;;6.77;4.77;;;;;;;;;;4959410;28;20672;-73
2023/04/11 04:45:49;;;;;;;7.10;5.20;;;;;;;;;;4956679;28;20900;-73
2023/04/11 04:48:24;;;;;;;8.10;5.73;;;;;;;;;;4957697;28;20223;-73
2023/04/11 04:50:51;;;;;;;28.63;15.27;;;;;;;;;;4933000;28;20222;-72
2023/04/11 04:53:19;;;;;;;19.33;10.20;;;;;;;;;;4955371;28;20690;-73
2023/04/11 04:55:51;;;;;;;13.30;9.00;;;;;;;;;;4955816;28;20217;-73
2023/04/11 04:58:19;;;;;;;10.27;6.60;;;;;;;;;;4941638;28;20788;-72
2023/04/11 05:00:48;;;;;;;9.23;6.07;;;;;;;;;;4958909;28;20637;-73
2023/04/11 05:03:21;;;;;;;7.50;5.20;;;;;;;;;;4940909;28;20736;-73
2023/04/11 05:05:50;;;;;;;9.93;6.37;;;;;;;;;;4939274;28;20207;-73
2023/04/11 05:08:18;;;;;;;9.10;5.83;;;;;;;;;;4939027;28;20233;-72
2023/04/11 05:10:44;;;;;;;6.97;5.20;;;;;;;;;;4956294;28;20294;-73
2023/04/11 05:13:13;;;;;;;5.30;4.33;;;;;;;;;;4942735;28;20205;-73
2023/04/11 05:15:46;;;;;;;6.47;4.70;;;;;;;;;;4939787;28;20224;-73
2023/04/11 05:18:13;;;;;;;6.47;4.53;;;;;;;;;;4942265;28;20233;-72
2023/04/11 05:20:39;;;;;;;8.20;5.53;;;;;;;;;;4939005;28;20212;-73
2023/04/11 05:23:07;;;;;;;9.50;6.33;;;;;;;;;;4941227;28;20242;-73
2023/04/11 05:25:33;;;;;;;8.47;6.33;;;;;;;;;;4952210;28;20212;-73
2023/04/11 05:28:01;;;;;;;7.50;6.37;;;;;;;;;;4940720;28;20906;-73
2023/04/11 05:30:53;;;;;;;6.80;4.80;;;;;;;;;;4949204;28;20268;-73
2023/04/11 05:33:20;;;;;;;7.70;5.37;;;;;;;;;;4943018;28;20221;-72
2023/04/11 05:35:47;;;;;;;8.97;4.70;;;;;;;;;;4934470;28;20210;-73
2023/04/11 05:38:13;;;;;;;6.93;4.57;;;;;;;;;;4916957;28;20234;-73
2023/04/11 05:40:39;;;;;;;15.53;5.40;;;;;;;;;;4928335;28;20842;-73
2023/04/11 05:43:07;;;;;;;9.13;5.97;;;;;;;;;;4941690;28;20244;-73
2023/04/11 05:45:33;;;;;;;6.27;4.90;;;;;;;;;;4924710;28;20236;-73
2023/04/11 05:48:00;;;;;;;5.53;4.30;;;;;;;;;;4924609;28;21035;-73
2023/04/11 05:50:31;;;;;;;6.77;4.73;;;;;;;;;;4941745;28;20209;-73
2023/04/11 05:52:57;;;;;;;8.97;5.00;;;;;;;;;;4948270;28;20222;-73
2023/04/11 05:55:24;;;;;;;9.80;4.70;;;;;;;;;;4954659;28;20586;-72
2023/04/11 05:57:50;;;;;;;8.93;5.63;;;;;;;;;;4951968;28;20233;-73
2023/04/11 06:00:17;;;;;;;9.77;6.03;;;;;;;;;;4938615;28;20221;-72
2023/04/11 06:02:43;;;;;;;9.90;5.93;;;;;;;;;;4947758;28;20220;-73
2023/04/11 06:05:11;;;;;;;10.40;5.57;;;;;;;;;;4948621;28;20248;-73
2023/04/11 06:07:39;;;;;;;7.13;5.27;;;;;;;;;;4953101;28;20310;-73
2023/04/11 06:10:05;;;;;;;8.93;5.50;;;;;;;;;;4944854;28;20571;-73
2023/04/11 06:12:37;;;;;;;7.73;5.20;;;;;;;;;;4958794;28;20621;-72
2023/04/11 06:15:03;;;;;;;7.33;5.60;;;;;;;;;;4955697;28;22105;-73
2023/04/11 06:17:33;;;;;;;10.73;5.33;;;;;;;;;;4957608;28;20287;-73
2023/04/11 06:20:00;;;;;;;9.57;6.13;;;;;;;;;;4952817;28;20206;-73
2023/04/11 06:22:52;;;;;;;7.80;5.40;;;;;;;;;;4950787;28;20220;-73
2023/04/11 06:25:19;;;;;;;9.00;5.93;;;;;;;;;;4947687;28;20583;-72
2023/04/11 06:27:45;;;;;;;7.40;5.13;;;;;;;;;;4950567;28;20223;-73
2023/04/11 06:30:11;;;;;;;8.70;5.70;;;;;;;;;;4952805;28;20218;-73
2023/04/11 06:32:38;;;;;;;8.23;5.63;;;;;;;;;;4938491;28;20246;-72
2023/04/11 06:35:29;;;;;;;7.77;5.37;;;;;;;;;;4946225;28;20290;-73
2023/04/11 06:37:57;;;;;;;10.60;5.77;;;;;;;;;;4952469;28;20224;-73
2023/04/11 06:40:23;;;;;;;9.50;5.93;;;;;;;;;;4947402;28;20556;-73
2023/04/11 06:42:49;;;;;;;9.93;6.20;;;;;;;;;;4948050;28;20217;-73
2023/04/11 06:45:16;;;;;;;10.63;5.57;;;;;;;;;;4951534;28;20208;-73
2023/04/11 06:47:42;;;;;;;13.87;6.20;;;;;;;;;;4950935;28;20748;-72
2023/04/11 06:50:08;;;;;;;9.13;5.67;;;;;;;;;;4946921;28;20211;-72
2023/04/11 06:52:35;;;;;;;11.67;7.13;;;;;;;;;;4951775;28;20212;-72
2023/04/11 06:55:02;;;;;;;9.40;6.03;;;;;;;;;;4949694;28;20671;-72
2023/04/11 06:57:28;;;;;;;8.70;5.87;;;;;;;;;;4946118;28;20211;-72
2023/04/11 06:59:55;;;;;;;11.80;6.03;;;;;;;;;;4952455;28;20740;-72
2023/04/11 07:02:23;;;;;;;12.03;6.43;;;;;;;;;;4957866;28;20275;-73
2023/04/11 07:04:50;;;;;;;8.30;5.47;;;;;;;;;;4955141;28;20673;-72
2023/04/11 07:07:16;;;;;;;10.40;6.63;;;;;;;;;;4961336;28;20225;-72
2023/04/11 07:09:43;;;;;;;12.63;7.07;;;;;;;;;;4956802;28;20609;-72
2023/04/11 07:12:10;;;;;;;10.67;6.93;;;;;;;;;;4955834;28;20215;-72
2023/04/11 07:14:37;;;;;;;12.73;7.40;;;;;;;;;;4951392;28;20215;-72
2023/04/11 07:17:03;;;;;;;13.00;6.93;;;;;;;;;;4951277;28;20213;-72
2023/04/11 07:19:29;;;;;;;12.87;7.10;;;;;;;;;;4951939;28;23877;-72
2023/04/11 07:21:55;;;;;;;12.23;7.07;;;;;;;;;;4953012;28;20219;-72
2023/04/11 07:24:22;;;;;;;10.43;6.57;;;;;;;;;;4951791;28;21675;-72
2023/04/11 07:26:49;;;;;;;13.00;6.43;;;;;;;;;;4951345;28;20217;-72
2023/04/11 07:29:17;;;;;;;10.60;6.33;;;;;;;;;;4954272;28;20226;-72
2023/04/11 07:31:43;;;;;;;9.73;6.53;;;;;;;;;;4949462;28;20215;-72
2023/04/11 07:34:09;;;;;;;9.70;6.33;;;;;;;;;;4949420;28;21758;-72
2023/04/11 07:36:36;;;;;;;15.17;7.57;;;;;;;;;;4951849;28;20214;-72
2023/04/11 07:39:03;;;;;;;9.23;6.63;;;;;;;;;;4949499;28;20243;-72
2023/04/11 07:41:29;;;;;;;9.63;6.97;;;;;;;;;;4951717;28;20273;-72
2023/04/11 07:43:55;;;;;;;11.80;6.57;;;;;;;;;;4950039;28;20297;-72
2023/04/11 07:46:23;;;;;;;11.53;7.60;;;;;;;;;;4955437;28;20207;-72
2023/04/11 07:48:49;;;;;;;14.93;7.30;;;;;;;;;;4949791;28;20246;-72
2023/04/11 07:51:16;;;;;;;10.57;7.73;;;;;;;;;;4949587;28;20213;-72
2023/04/11 07:53:43;;;;;;;9.97;6.90;;;;;;;;;;4948488;28;20681;-72
2023/04/11 07:56:09;;;;;;;12.07;7.83;;;;;;;;;;4955878;28;20683;-72
2023/04/11 07:58:35;;;;;;;10.00;6.40;;;;;;;;;;4950705;28;20232;-72
2023/04/11 08:01:02;;;;;;;13.00;6.97;;;;;;;;;;4946024;28;20212;-73
2023/04/11 08:03:30;;;;;;;11.17;7.67;;;;;;;;;;4950774;28;20207;-73
2023/04/11 08:05:56;;;;;;;13.53;7.67;;;;;;;;;;4950376;28;20269;-72
2023/04/11 08:08:22;;;;;;;8.17;6.50;;;;;;;;;;4946739;28;20229;-72
2023/04/11 08:10:49;;;;;;;14.87;8.60;;;;;;;;;;4939059;28;20238;-72
2023/04/11 08:13:15;;;;;;;11.17;7.70;;;;;;;;;;4950487;28;20215;-73
2023/04/11 08:15:41;;;;;;;11.60;6.97;;;;;;;;;;4949419;28;20687;-72
2023/04/11 08:18:08;;;;;;;10.33;6.30;;;;;;;;;;4948499;28;20218;-72
2023/04/11 08:20:35;;;;;;;11.93;6.93;;;;;;;;;;4948586;28;20214;-72
2023/04/11 08:23:05;;;;;;;11.60;7.87;;;;;;;;;;4950837;28;20235;-72
2023/04/11 08:25:32;;;;;;;13.67;7.33;;;;;;;;;;4951837;28;20289;-72
2023/04/11 08:28:01;;;;;;;10.27;6.03;;;;;;;;;;4937910;28;20250;-72
2023/04/11 08:30:54;;;;;;;10.60;6.73;;;;;;;;;;4955543;28;20347;-72
2023/04/11 08:33:22;;;;;;;10.87;6.87;;;;;;;;;;4950665;28;20546;-72
2023/04/11 08:35:50;;;;;;;10.10;6.40;;;;;;;;;;4953640;28;20485;-72
2023/04/11 08:38:16;;;;;;;9.87;6.73;;;;;;;;;;4951821;28;20232;-73
2023/04/11 08:40:42;;;;;;;8.70;6.20;;;;;;;;;;4951892;28;20545;-72
2023/04/11 08:43:12;;;;;;;11.20;5.83;;;;;;;;;;4953746;28;20238;-72
2023/04/11 08:45:39;;;;;;;9.37;5.97;;;;;;;;;;4957902;28;20225;-72
2023/04/11 08:48:06;;;;;;;9.80;6.27;;;;;;;;;;4950733;28;20610;-73
2023/04/11 08:50:33;;;;;;;11.17;5.90;;;;;;;;;;4945152;28;20211;-72
2023/04/11 08:53:03;;;;;;;8.00;5.43;;;;;;;;;;4955311;28;20213;-72
2023/04/11 08:55:29;;;;;;;8.73;5.80;;;;;;;;;;4956936;28;20667;-72
2023/04/11 08:57:58;;;;;;;8.53;5.43;;;;;;;;;;4951465;28;20629;-73
2023/04/11 09:00:25;;;;;;;7.70;5.13;;;;;;;;;;4954851;28;20221;-72
2023/04/11 09:02:55;;;;;;;7.17;4.83;;;;;;;;;;4956428;28;20202;-73
2023/04/11 09:05:25;;;;;;;7.33;5.13;;;;;;;;;;4954863;28;20216;-73
2023/04/11 09:07:51;;;;;;;8.80;5.20;;;;;;;;;;4960982;28;20323;-73
2023/04/11 09:10:19;;;;;;;7.93;5.57;;;;;;;;;;4943811;28;20710;-72
2023/04/11 09:12:45;;;;;;;9.33;6.03;;;;;;;;;;4948147;28;20210;-73
2023/04/11 09:15:17;;;;;;;7.40;5.53;;;;;;;;;;4940691;28;20228;-73
2023/04/11 09:17:43;;;;;;;9.37;6.57;;;;;;;;;;4948569;28;20220;-72
2023/04/11 09:20:15;;;;;;;7.47;5.40;;;;;;;;;;4944985;28;20608;-72
2023/04/11 09:22:41;;;;;;;8.60;6.37;;;;;;;;;;4944566;28;20214;-73
2023/04/11 09:25:08;;;;;;;9.00;5.77;;;;;;;;;;4947169;28;20214;-72
2023/04/11 09:27:35;;;;;;;7.80;6.23;;;;;;;;;;4953425;28;20218;-72
2023/04/11 09:30:02;;;;;;;9.13;5.73;;;;;;;;;;4950800;28;20691;-72
2023/04/11 09:32:32;;;;;;;6.90;5.37;;;;;;;;;;4952400;28;20216;-73
2023/04/11 09:35:08;;;;;;;7.40;5.00;;;;;;;;;;4954395;28;20573;-72
2023/04/11 09:37:45;;;;;;;7.20;5.37;;;;;;;;;;4953878;28;20226;-72
2023/04/11 09:40:12;;;;;;;9.47;5.73;;;;;;;;;;4948873;28;20245;-72
2023/04/11 09:42:40;;;;;;;9.03;5.10;;;;;;;;;;4953764;28;20303;-72
2023/04/11 09:45:15;;;;;;;6.63;4.80;;;;;;;;;;4944338;28;20672;-72
2023/04/11 09:47:41;;;;;;;8.97;5.43;;;;;;;;;;4953751;28;20615;-72
2023/04/11 09:50:08;;;;;;;13.40;7.20;;;;;;;;;;4953468;28;20580;-72
2023/04/11 09:52:36;;;;;;;8.60;5.37;;;;;;;;;;4952332;28;20215;-72
2023/04/11 09:55:03;;;;;;;5.97;4.10;;;;;;;;;;4949401;28;20297;-72
2023/04/11 09:57:32;;;;;;;8.10;4.83;;;;;;;;;;4949806;28;20213;-72
2023/04/11 10:00:00;;;;;;;6.97;4.27;;;;;;;;;;4952740;28;20206;-73
2023/04/11 10:02:28;;;;;;;7.13;3.77;;;;;;;;;;4951296;28;20209;-72
2023/04/11 10:04:55;;;;;;;6.00;3.07;;;;;;;;;;4950470;28;20202;-73
2023/04/11 10:07:22;;;;;;;7.03;3.33;;;;;;;;;;4956892;28;20217;-72
2023/04/11 10:09:48;;;;;;;5.53;2.57;;;;;;;;;;4959815;28;20253;-72
2023/04/11 10:12:29;;;;;;;4.97;3.30;;;;;;;;;;4954824;28;20315;-72
2023/04/11 10:14:56;;;;;;;3.27;2.80;;;;;;;;;;4952369;28;20263;-72
2023/04/11 10:17:24;;;;;;;3.43;2.40;;;;;;;;;;4956874;28;20201;-72
2023/04/11 10:19:55;;;;;;;3.80;2.87;;;;;;;;;;4949740;28;20234;-72
2023/04/11 10:22:39;;;;;;;3.90;2.70;;;;;;;;;;4959538;28;20209;-72
2023/04/11 10:25:15;;;;;;;3.37;2.60;;;;;;;;;;4952756;28;20214;-72
2023/04/11 10:27:48;;;;;;;4.93;3.20;;;;;;;;;;4955647;28;20272;-73
2023/04/11 10:30:14;;;;;;;5.23;2.80;;;;;;;;;;4954582;28;20210;-72
2023/04/11 10:33:02;;;;;;;4.77;3.07;;;;;;;;;;4942236;28;20213;-72
2023/04/11 10:35:33;;;;;;;3.73;2.93;;;;;;;;;;4945609;28;20217;-72
2023/04/11 10:37:59;;;;;;;4.33;3.30;;;;;;;;;;4954618;28;20581;-72
2023/04/11 10:40:25;;;;;;;4.47;2.80;;;;;;;;;;4957065;28;20226;-73
2023/04/11 10:42:52;;;;;;;3.40;2.77;;;;;;;;;;4957062;28;20583;-73
2023/04/11 10:45:20;;;;;;;3.33;2.40;;;;;;;;;;4957097;28;20215;-72
2023/04/11 10:48:02;;;;;;;3.93;2.53;;;;;;;;;;4955816;28;20233;-73
2023/04/11 10:50:35;;;;;;;3.27;2.97;;;;;;;;;;4948912;28;20210;-73
2023/04/11 10:53:03;;;;;;;3.20;2.37;;;;;;;;;;4957100;28;20213;-73
2023/04/11 10:55:31;;;;;;;3.80;2.33;;;;;;;;;;4956250;28;20202;-73
2023/04/11 10:58:05;;;;;;;4.33;2.43;;;;;;;;;;4958342;28;20218;-73
2023/04/11 11:00:58;;;;;;;3.50;2.43;;;;;;;;;;4943951;28;20258;-73
2023/04/11 11:03:28;;;;;;;5.20;2.60;;;;;;;;;;4954991;28;20224;-73
2023/04/11 11:05:57;;;;;;;4.97;2.30;;;;;;;;;;4948405;28;20206;-73
2023/04/11 11:10:50;;;;;;;3.57;2.37;;;;;;;;;;4938508;28;20234;-72
2023/04/11 11:13:17;;;;;;;6.90;2.60;;;;;;;;;;4944088;29;21727;-73
2023/04/11 11:15:47;;;;;;;4.40;2.77;;;;;;;;;;4945257;28;20262;-73
2023/04/11 11:18:15;;;;;;;2.87;2.17;;;;;;;;;;4944565;28;20273;-73
2023/04/11 11:20:42;;;;;;;3.20;2.57;;;;;;;;;;4918834;29;20805;-73
2023/04/11 11:23:10;;;;;;;4.23;2.70;;;;;;;;;;4922576;29;20230;-73
2023/04/11 11:25:36;;;;;;;2.30;1.93;;;;;;;;;;4922293;29;20689;-73
2023/04/11 11:28:03;;;;;;;2.03;1.70;;;;;;;;;;4923743;29;20698;-72
2023/04/11 11:30:32;;;;;;;2.00;1.53;;;;;;;;;;4925811;29;20701;-73
2023/04/11 11:32:59;;;;;;;2.77;1.80;;;;;;;;;;4922481;29;20211;-74
2023/04/11 11:35:25;;;;;;;4.47;1.77;;;;;;;;;;4914761;29;20757;-73
2023/04/11 11:37:53;;;;;;;2.00;1.47;;;;;;;;;;4914884;29;20211;-73
2023/04/11 11:40:21;;;;;;;1.87;1.43;;;;;;;;;;4920103;29;20702;-73
2023/04/11 11:42:49;;;;;;;3.07;2.00;;;;;;;;;;4922802;29;20203;-73
2023/04/11 11:45:16;;;;;;;2.00;1.43;;;;;;;;;;4915871;29;20214;-72
2023/04/11 11:47:42;;;;;;;3.47;1.70;;;;;;;;;;4919063;29;20215;-72
2023/04/11 11:50:09;;;;;;;2.70;1.90;;;;;;;;;;4911632;29;20240;-72
2023/04/11 11:52:38;;;;;;;3.80;1.97;;;;;;;;;;4905111;29;20291;-72
2023/04/11 11:55:29;;;;;;;4.17;1.60;;;;;;;;;;4918879;29;20585;-72
2023/04/11 11:57:59;;;;;;;2.63;0.70;;;;;;;;;;4921753;29;20214;-72
2023/04/11 12:00:27;;;;;;;0.80;0.70;;;;;;;;;;4917046;29;20227;-72
2023/04/11 12:02:54;;;;;;;1.77;1.00;;;;;;;;;;4919400;29;20218;-72
2023/04/11 12:05:20;;;;;;;1.27;1.00;;;;;;;;;;4910374;29;20208;-72
2023/04/11 12:07:46;;;;;;;1.97;1.30;;;;;;;;;;4917838;29;20225;-72
2023/04/11 12:10:16;;;;;;;1.20;1.10;;;;;;;;;;4935319;28;20245;-72
2023/04/11 12:12:43;;;;;;;1.40;1.27;;;;;;;;;;4941789;28;20222;-72
2023/04/11 12:15:10;;;;;;;3.47;1.10;;;;;;;;;;4937157;28;20203;-72
2023/04/11 12:17:36;;;;;;;2.97;1.37;;;;;;;;;;4921375;28;20787;-72
2023/04/11 12:20:05;;;;;;;1.50;1.40;;;;;;;;;;4940802;28;20229;-72
2023/04/11 12:22:32;;;;;;;2.27;1.40;;;;;;;;;;4938633;28;20211;-72
2023/04/11 12:25:03;;;;;;;2.90;1.43;;;;;;;;;;4943247;28;20210;-72
2023/04/11 12:27:33;;;;;;;1.70;1.60;;;;;;;;;;4943255;28;22364;-73
2023/04/11 12:30:00;;;;;;;3.23;1.60;;;;;;;;;;4940638;28;20294;-73
2023/04/11 12:32:52;;;;;;;3.30;1.50;;;;;;;;;;4947429;28;20592;-72
2023/04/11 12:35:18;;;;;;;2.07;1.30;;;;;;;;;;4945652;28;20207;-73
2023/04/11 12:37:45;;;;;;;2.90;1.70;;;;;;;;;;4943707;28;20477;-72
2023/04/11 12:40:11;;;;;;;2.63;1.60;;;;;;;;;;4940226;28;20230;-74
2023/04/11 12:42:39;;;;;;;3.80;1.73;;;;;;;;;;4936554;28;20203;-72
2023/04/11 12:45:06;;;;;;;2.27;1.70;;;;;;;;;;4938390;28;20238;-72
2023/04/11 12:47:32;;;;;;;3.37;1.17;;;;;;;;;;4933706;28;20203;-72
2023/04/11 12:49:59;;;;;;;2.07;1.13;;;;;;;;;;4932859;28;20632;-72
2023/04/11 12:52:25;;;;;;;1.57;1.10;;;;;;;;;;4934627;28;20258;-72
2023/04/11 12:54:51;;;;;;;0.93;0.93;;;;;;;;;;4935423;28;20215;-72
2023/04/11 12:57:18;;;;;;;1.00;0.83;;;;;;;;;;4930835;28;20215;-72
2023/04/11 12:59:45;;;;;;;0.90;0.60;;;;;;;;;;4935118;28;20726;-72
2023/04/11 13:02:11;;;;;;;0.60;0.60;;;;;;;;;;4941320;28;20249;-72
2023/04/11 13:04:38;;;;;;;1.20;1.00;;;;;;;;;;4938572;28;20203;-72
2023/04/11 13:07:04;;;;;;;1.43;0.80;;;;;;;;;;4941544;28;20209;-72
2023/04/11 13:09:34;;;;;;;2.77;1.20;;;;;;;;;;4941059;28;20641;-73
2023/04/11 13:12:00;;;;;;;0.80;0.80;;;;;;;;;;4942919;28;20219;-73
2023/04/11 13:14:31;;;;;;;1.97;1.10;;;;;;;;;;4942637;28;20227;-72
2023/04/11 13:16:59;;;;;;;0.60;0.60;;;;;;;;;;4940573;28;20665;-73
2023/04/11 13:19:25;;;;;;;0.77;0.67;;;;;;;;;;4937817;28;20694;-73
2023/04/11 13:21:51;;;;;;;0.60;0.60;;;;;;;;;;4942258;28;20257;-72
2023/04/11 13:24:17;;;;;;;0.60;0.57;;;;;;;;;;4942674;28;20211;-72
2023/04/11 13:26:45;;;;;;;1.07;0.57;;;;;;;;;;4942510;28;20493;-73
2023/04/11 13:29:11;;;;;;;0.60;0.60;;;;;;;;;;4939499;28;20232;-73
2023/04/11 13:31:37;;;;;;;1.23;0.67;;;;;;;;;;4938719;28;20632;-73
2023/04/11 13:34:05;;;;;;;0.70;0.60;;;;;;;;;;4937171;28;20215;-73
2023/04/11 13:36:33;;;;;;;0.90;0.60;;;;;;;;;;4941617;28;20651;-73
2023/04/11 13:38:59;;;;;;;0.60;0.60;;;;;;;;;;4940212;28;20606;-73
2023/04/11 13:41:25;;;;;;;1.07;0.70;;;;;;;;;;4937591;28;20204;-73
2023/04/11 13:43:52;;;;;;;1.70;0.77;;;;;;;;;;4941956;28;20293;-73
2023/04/11 13:46:18;;;;;;;0.57;0.57;;;;;;;;;;4941283;28;20214;-73
2023/04/11 13:48:45;;;;;;;1.23;0.70;;;;;;;;;;4932697;28;20252;-73
2023/04/11 13:51:15;;;;;;;2.23;1.30;;;;;;;;;;4935507;28;20276;-73
2023/04/11 13:53:41;;;;;;;4.07;1.10;;;;;;;;;;4940811;28;20206;-73
2023/04/11 13:56:07;;;;;;;1.07;0.97;;;;;;;;;;4942559;28;20680;-73
2023/04/11 13:58:34;;;;;;;1.23;0.70;;;;;;;;;;4934838;28;20292;-73
2023/04/11 14:01:00;;;;;;;0.67;0.67;;;;;;;;;;4940544;28;20216;-73
2023/04/11 14:03:52;;;;;;;1.10;1.00;;;;;;;;;;4942275;28;20350;-73
2023/04/11 14:06:19;;;;;;;0.73;0.73;;;;;;;;;;4938525;28;20248;-73
2023/04/11 14:08:46;;;;;;;3.47;1.00;;;;;;;;;;4937898;28;20240;-73
2023/04/11 14:11:12;;;;;;;1.60;1.00;;;;;;;;;;4940998;28;20736;-73
2023/04/11 14:13:38;;;;;;;1.30;0.57;;;;;;;;;;4940607;29;20225;-73
2023/04/11 14:16:06;;;;;;;1.97;1.00;;;;;;;;;;4940504;28;20228;-73
2023/04/11 14:18:32;;;;;;;1.93;1.20;;;;;;;;;;4943308;28;20206;-73
2023/04/11 14:21:00;;;;;;;1.60;1.50;;;;;;;;;;4938119;28;20221;-73
2023/04/11 14:23:32;;;;;;;2.33;1.00;;;;;;;;;;4942196;28;20229;-73
2023/04/11 14:25:59;;;;;;;0.90;0.80;;;;;;;;;;4926697;29;20232;-72
2023/04/11 14:28:25;;;;;;;1.63;1.13;;;;;;;;;;4939684;28;20294;-72
2023/04/11 14:30:52;;;;;;;1.70;1.00;;;;;;;;;;4939167;28;20289;-72
2023/04/11 14:33:18;;;;;;;1.63;1.30;;;;;;;;;;4940411;28;20211;-72
2023/04/11 14:35:45;;;;;;;1.60;1.30;;;;;;;;;;4936506;28;20576;-72
2023/04/11 14:38:12;;;;;;;1.00;0.90;;;;;;;;;;4939747;28;20258;-72
2023/04/11 14:40:41;;;;;;;0.77;0.63;;;;;;;;;;4940472;28;20224;-72
2023/04/11 14:43:07;;;;;;;1.20;0.67;;;;;;;;;;4932696;28;20227;-72
2023/04/11 14:45:33;;;;;;;0.70;0.70;;;;;;;;;;4940146;28;20217;-72
2023/04/11 14:47:59;;;;;;;1.27;0.83;;;;;;;;;;4942218;28;20257;-72
2023/04/11 14:50:53;;;;;;;1.33;0.87;;;;;;;;;;4936353;28;20217;-72
2023/04/11 14:53:19;;;;;;;0.90;0.80;;;;;;;;;;4941024;28;20237;-72